sensor_id;sensor_type;location;lat;lon;timestamp;P1;durP1;ratioP1;P2;durP2;ratioP2
71202;SDS011;58929;47.490;19.090;2022-10-30T17:39:40;72.75;;;43.78;;
71202;SDS011;58929;47.490;19.090;2022-10-30T17:42:08;50.97;;;30.58;;
71202;SDS011;58929;47.490;19.090;2022-10-30T17:44:36;45.58;;;30.30;;
71202;SDS011;58929;47.490;19.090;2022-10-30T17:47:07;46.63;;;28.90;;
71202;SDS011;58929;47.490;19.090;2022-10-30T17:49:38;44.35;;;27.77;;
71202;SDS011;58929;47.490;19.090;2022-10-30T17:52:08;47.83;;;29.23;;
71202;SDS011;58929;47.490;19.090;2022-10-30T17:54:36;44.60;;;27.80;;
71202;SDS011;58929;47.490;19.090;2022-10-30T17:57:07;41.28;;;27.33;;
71202;SDS011;58929;47.490;19.090;2022-10-30T17:59:35;46.35;;;26.75;;
71202;SDS011;58929;47.490;19.090;2022-10-30T18:02:07;42.13;;;25.88;;
71202;SDS011;58929;47.490;19.090;2022-10-30T18:04:36;46.17;;;27.73;;
71202;SDS011;58929;47.490;19.090;2022-10-30T18:07:04;45.90;;;28.25;;
71202;SDS011;58929;47.490;19.090;2022-10-30T18:09:32;43.20;;;27.70;;
71202;SDS011;58929;47.490;19.090;2022-10-30T18:14:28;44.70;;;28.67;;
71202;SDS011;58929;47.490;19.090;2022-10-30T18:16:56;47.03;;;29.38;;
71202;SDS011;58929;47.490;19.090;2022-10-30T18:19:24;46.97;;;28.52;;
71202;SDS011;58929;47.490;19.090;2022-10-30T18:21:52;39.63;;;26.90;;
71202;SDS011;58929;47.490;19.090;2022-10-30T18:24:22;46.97;;;29.17;;
71202;SDS011;58929;47.490;19.090;2022-10-30T18:26:51;45.28;;;28.83;;
71202;SDS011;58929;47.490;19.090;2022-10-30T18:29:20;45.13;;;28.67;;
71202;SDS011;58929;47.490;19.090;2022-10-30T18:31:49;44.17;;;29.20;;
71202;SDS011;58929;47.490;19.090;2022-10-30T18:34:22;42.50;;;29.05;;
71202;SDS011;58929;47.490;19.090;2022-10-30T18:39:17;44.17;;;28.42;;
71202;SDS011;58929;47.490;19.090;2022-10-30T18:41:45;44.75;;;29.98;;
71202;SDS011;58929;47.490;19.090;2022-10-30T18:44:14;47.00;;;30.70;;
71202;SDS011;58929;47.490;19.090;2022-10-30T18:46:42;49.70;;;29.70;;
71202;SDS011;58929;47.490;19.090;2022-10-30T18:49:11;45.83;;;29.90;;
71202;SDS011;58929;47.490;19.090;2022-10-30T18:51:39;44.65;;;29.38;;
71202;SDS011;58929;47.490;19.090;2022-10-30T18:56:35;51.05;;;31.70;;
71202;SDS011;58929;47.490;19.090;2022-10-30T19:01:30;50.55;;;31.33;;
71202;SDS011;58929;47.490;19.090;2022-10-30T19:03:58;53.13;;;30.23;;
71202;SDS011;58929;47.490;19.090;2022-10-30T19:06:30;48.80;;;31.48;;
71202;SDS011;58929;47.490;19.090;2022-10-30T19:09:00;44.40;;;31.20;;
71202;SDS011;58929;47.490;19.090;2022-10-30T19:13:57;50.38;;;31.38;;
71202;SDS011;58929;47.490;19.090;2022-10-30T19:16:25;44.88;;;29.35;;
71202;SDS011;58929;47.490;19.090;2022-10-30T19:18:53;46.13;;;30.55;;
71202;SDS011;58929;47.490;19.090;2022-10-30T19:23:49;50.05;;;31.35;;
71202;SDS011;58929;47.490;19.090;2022-10-30T19:26:17;48.03;;;31.63;;
71202;SDS011;58929;47.490;19.090;2022-10-30T19:31:13;54.10;;;34.50;;
71202;SDS011;58929;47.490;19.090;2022-10-30T19:33:41;53.65;;;34.47;;
71202;SDS011;58929;47.490;19.090;2022-10-30T19:36:22;56.28;;;34.65;;
71202;SDS011;58929;47.490;19.090;2022-10-30T19:38:52;49.80;;;33.33;;
71202;SDS011;58929;47.490;19.090;2022-10-30T19:41:20;63.72;;;36.38;;
71202;SDS011;58929;47.490;19.090;2022-10-30T19:43:50;52.90;;;34.65;;
71202;SDS011;58929;47.490;19.090;2022-10-30T19:46:18;60.08;;;36.15;;
71202;SDS011;58929;47.490;19.090;2022-10-30T19:48:46;54.78;;;33.88;;
71202;SDS011;58929;47.490;19.090;2022-10-30T19:51:24;52.93;;;34.17;;
71202;SDS011;58929;47.490;19.090;2022-10-30T19:53:53;52.17;;;33.90;;
71202;SDS011;58929;47.490;19.090;2022-10-30T19:56:21;61.60;;;36.30;;
71202;SDS011;58929;47.490;19.090;2022-10-30T19:58:49;50.00;;;33.80;;
71202;SDS011;58929;47.490;19.090;2022-10-30T20:01:17;51.95;;;33.90;;
71202;SDS011;58929;47.490;19.090;2022-10-30T20:03:45;52.92;;;35.53;;
71202;SDS011;58929;47.490;19.090;2022-10-30T20:06:14;50.25;;;33.85;;
71202;SDS011;58929;47.490;19.090;2022-10-30T20:08:42;49.30;;;32.28;;
71202;SDS011;58929;47.490;19.090;2022-10-30T20:11:11;54.95;;;34.33;;
71202;SDS011;58929;47.490;19.090;2022-10-30T20:13:39;52.50;;;34.58;;
71202;SDS011;58929;47.490;19.090;2022-10-30T20:16:07;54.65;;;35.90;;
71202;SDS011;58929;47.490;19.090;2022-10-30T20:18:34;57.28;;;35.22;;
71202;SDS011;58929;47.490;19.090;2022-10-30T20:21:03;50.25;;;34.40;;
71202;SDS011;58929;47.490;19.090;2022-10-30T20:23:34;58.83;;;35.70;;
71202;SDS011;58929;47.490;19.090;2022-10-30T20:26:02;55.58;;;35.10;;
71202;SDS011;58929;47.490;19.090;2022-10-30T20:28:33;57.28;;;37.17;;
71202;SDS011;58929;47.490;19.090;2022-10-30T20:31:02;51.35;;;33.20;;
71202;SDS011;58929;47.490;19.090;2022-10-30T20:33:30;56.63;;;34.72;;
71202;SDS011;58929;47.490;19.090;2022-10-30T20:35:58;54.00;;;33.72;;
71202;SDS011;58929;47.490;19.090;2022-10-30T20:38:26;52.92;;;34.47;;
71202;SDS011;58929;47.490;19.090;2022-10-30T20:40:56;56.60;;;36.10;;
71202;SDS011;58929;47.490;19.090;2022-10-30T20:43:26;54.92;;;33.95;;
71202;SDS011;58929;47.490;19.090;2022-10-30T20:45:57;50.90;;;34.38;;
71202;SDS011;58929;47.490;19.090;2022-10-30T20:48:25;53.45;;;35.15;;
71202;SDS011;58929;47.490;19.090;2022-10-30T20:50:53;55.05;;;35.22;;
71202;SDS011;58929;47.490;19.090;2022-10-30T20:53:21;55.10;;;36.78;;
71202;SDS011;58929;47.490;19.090;2022-10-30T20:55:49;58.35;;;36.95;;
71202;SDS011;58929;47.490;19.090;2022-10-30T20:58:17;56.42;;;37.53;;
71202;SDS011;58929;47.490;19.090;2022-10-30T21:00:45;63.13;;;36.25;;
71202;SDS011;58929;47.490;19.090;2022-10-30T21:03:14;58.15;;;36.38;;
71202;SDS011;58929;47.490;19.090;2022-10-30T21:05:42;54.78;;;34.72;;
71202;SDS011;58929;47.490;19.090;2022-10-30T21:08:11;69.97;;;36.28;;
71202;SDS011;58929;47.490;19.090;2022-10-30T21:10:39;55.10;;;34.35;;
71202;SDS011;58929;47.490;19.090;2022-10-30T21:13:08;58.30;;;36.55;;
71202;SDS011;58929;47.490;19.090;2022-10-30T21:15:37;59.30;;;38.17;;
71202;SDS011;58929;47.490;19.090;2022-10-30T21:18:05;62.78;;;37.65;;
71202;SDS011;58929;47.490;19.090;2022-10-30T21:20:35;60.83;;;37.63;;
71202;SDS011;58929;47.490;19.090;2022-10-30T21:23:03;57.55;;;36.40;;
71202;SDS011;58929;47.490;19.090;2022-10-30T21:25:31;56.45;;;37.25;;
71202;SDS011;58929;47.490;19.090;2022-10-30T21:27:59;59.78;;;37.45;;
71202;SDS011;58929;47.490;19.090;2022-10-30T21:30:27;61.05;;;37.08;;
71202;SDS011;58929;47.490;19.090;2022-10-30T21:32:55;66.25;;;39.67;;
71202;SDS011;58929;47.490;19.090;2022-10-30T21:35:23;60.97;;;37.30;;
71202;SDS011;58929;47.490;19.090;2022-10-30T21:37:52;62.78;;;37.90;;
71202;SDS011;58929;47.490;19.090;2022-10-30T21:40:20;62.03;;;36.78;;
71202;SDS011;58929;47.490;19.090;2022-10-30T21:42:48;58.15;;;37.08;;
71202;SDS011;58929;47.490;19.090;2022-10-30T21:45:16;60.97;;;36.85;;
71202;SDS011;58929;47.490;19.090;2022-10-30T21:47:44;68.75;;;41.92;;
71202;SDS011;58929;47.490;19.090;2022-10-30T21:52:39;56.88;;;37.20;;
71202;SDS011;58929;47.490;19.090;2022-10-30T21:55:08;64.72;;;37.88;;
71202;SDS011;58929;47.490;19.090;2022-10-30T21:57:36;67.47;;;37.75;;
71202;SDS011;58929;47.490;19.090;2022-10-30T22:00:04;63.17;;;38.25;;
71202;SDS011;58929;47.490;19.090;2022-10-30T22:02:33;66.82;;;40.90;;
71202;SDS011;58929;47.490;19.090;2022-10-30T22:05:01;58.97;;;36.45;;
71202;SDS011;58929;47.490;19.090;2022-10-30T22:07:29;60.08;;;36.40;;
71202;SDS011;58929;47.490;19.090;2022-10-30T22:09:57;67.95;;;40.40;;
71202;SDS011;58929;47.490;19.090;2022-10-30T22:12:26;70.78;;;39.80;;
71202;SDS011;58929;47.490;19.090;2022-10-30T22:14:54;60.15;;;37.03;;
71202;SDS011;58929;47.490;19.090;2022-10-30T22:17:22;61.00;;;36.20;;
71202;SDS011;58929;47.490;19.090;2022-10-30T22:19:50;64.18;;;37.08;;
71202;SDS011;58929;47.490;19.090;2022-10-30T22:22:18;64.05;;;39.20;;
71202;SDS011;58929;47.490;19.090;2022-10-30T22:24:45;61.80;;;36.50;;
71202;SDS011;58929;47.490;19.090;2022-10-30T22:27:13;62.78;;;37.15;;
71202;SDS011;58929;47.490;19.090;2022-10-30T22:32:12;63.03;;;37.60;;
71202;SDS011;58929;47.490;19.090;2022-10-30T22:34:40;60.53;;;37.67;;
71202;SDS011;58929;47.490;19.090;2022-10-30T22:37:08;67.85;;;38.58;;
71202;SDS011;58929;47.490;19.090;2022-10-30T22:42:04;58.00;;;36.13;;
71202;SDS011;58929;47.490;19.090;2022-10-30T22:44:32;64.43;;;39.10;;
71202;SDS011;58929;47.490;19.090;2022-10-30T22:47:00;63.72;;;39.70;;
71202;SDS011;58929;47.490;19.090;2022-10-30T22:49:29;69.18;;;41.05;;
71202;SDS011;58929;47.490;19.090;2022-10-30T22:51:57;68.10;;;40.30;;
71202;SDS011;58929;47.490;19.090;2022-10-30T22:54:25;72.43;;;41.63;;
71202;SDS011;58929;47.490;19.090;2022-10-30T22:56:53;72.03;;;41.75;;
71202;SDS011;58929;47.490;19.090;2022-10-30T22:59:21;62.17;;;38.47;;
71202;SDS011;58929;47.490;19.090;2022-10-30T23:01:49;59.28;;;37.45;;
71202;SDS011;58929;47.490;19.090;2022-10-30T23:04:17;63.83;;;40.15;;
71202;SDS011;58929;47.490;19.090;2022-10-30T23:06:47;72.55;;;41.63;;
71202;SDS011;58929;47.490;19.090;2022-10-30T23:09:15;75.28;;;40.80;;
71202;SDS011;58929;47.490;19.090;2022-10-30T23:11:43;68.68;;;41.88;;
71202;SDS011;58929;47.490;19.090;2022-10-30T23:14:12;67.95;;;40.75;;
71202;SDS011;58929;47.490;19.090;2022-10-30T23:16:40;66.05;;;40.63;;
71202;SDS011;58929;47.490;19.090;2022-10-30T23:19:09;71.60;;;43.15;;
71202;SDS011;58929;47.490;19.090;2022-10-30T23:21:36;68.78;;;41.25;;
71202;SDS011;58929;47.490;19.090;2022-10-30T23:24:06;69.70;;;42.92;;
71202;SDS011;58929;47.490;19.090;2022-10-30T23:26:34;73.13;;;43.88;;
71202;SDS011;58929;47.490;19.090;2022-10-30T23:29:02;78.65;;;44.13;;
71202;SDS011;58929;47.490;19.090;2022-10-30T23:31:31;77.97;;;46.13;;
71202;SDS011;58929;47.490;19.090;2022-10-30T23:34:00;86.72;;;49.63;;
71202;SDS011;58929;47.490;19.090;2022-10-30T23:36:28;83.35;;;49.50;;
71202;SDS011;58929;47.490;19.090;2022-10-30T23:38:57;87.78;;;50.70;;
71202;SDS011;58929;47.490;19.090;2022-10-30T23:41:27;94.07;;;51.25;;
71202;SDS011;58929;47.490;19.090;2022-10-30T23:43:55;94.07;;;51.78;;
71202;SDS011;58929;47.490;19.090;2022-10-30T23:46:23;92.00;;;51.10;;
71202;SDS011;58929;47.490;19.090;2022-10-30T23:48:52;86.30;;;48.33;;
71202;SDS011;58929;47.490;19.090;2022-10-30T23:51:19;82.45;;;47.60;;
71202;SDS011;58929;47.490;19.090;2022-10-30T23:53:47;92.07;;;47.83;;
71202;SDS011;58929;47.490;19.090;2022-10-30T23:56:15;84.38;;;46.67;;
71202;SDS011;58929;47.490;19.090;2022-10-30T23:58:45;82.43;;;46.47;;
